sensor_id;sensor_type;location;lat;lon;timestamp;pressure;altitude;pressure_sealevel;temperature;humidity
46886;BME280;32622;48.202;11.326;2022-08-01T00:01:50;1016.13;;;23.35;21.46
46886;BME280;32622;48.202;11.326;2022-08-01T00:03:53;1016.20;;;23.21;21.54
46886;BME280;32622;48.202;11.326;2022-08-01T00:05:57;1016.18;;;23.24;21.41
46886;BME280;32622;48.202;11.326;2022-08-01T00:08:00;1016.09;;;23.54;21.10
46886;BME280;32622;48.202;11.326;2022-08-01T00:10:07;1016.15;;;23.44;21.51
46886;BME280;32622;48.202;11.326;2022-08-01T00:12:10;1016.23;;;23.09;21.56
46886;BME280;32622;48.202;11.326;2022-08-01T00:14:14;1016.22;;;23.11;21.65
46886;BME280;32622;48.202;11.326;2022-08-01T00:16:32;1016.17;;;23.38;21.50
46886;BME280;32622;48.202;11.326;2022-08-01T00:18:35;1016.18;;;23.41;21.35
46886;BME280;32622;48.202;11.326;2022-08-01T00:20:38;1016.35;;;22.45;21.90
46886;BME280;32622;48.202;11.326;2022-08-01T00:22:41;1016.32;;;22.74;21.83
46886;BME280;32622;48.202;11.326;2022-08-01T00:24:45;1016.28;;;22.85;21.62
46886;BME280;32622;48.202;11.326;2022-08-01T00:26:48;1016.32;;;22.84;21.75
46886;BME280;32622;48.202;11.326;2022-08-01T00:28:51;1016.41;;;22.36;21.97
46886;BME280;32622;48.202;11.326;2022-08-01T00:30:54;1016.38;;;22.62;21.93
46886;BME280;32622;48.202;11.326;2022-08-01T00:32:57;1016.31;;;22.99;21.46
46886;BME280;32622;48.202;11.326;2022-08-01T00:35:00;1016.24;;;23.41;21.52
46886;BME280;32622;48.202;11.326;2022-08-01T00:37:04;1016.27;;;23.25;21.39
46886;BME280;32622;48.202;11.326;2022-08-01T00:39:08;1016.36;;;22.58;21.91
46886;BME280;32622;48.202;11.326;2022-08-01T00:41:26;1016.21;;;23.47;21.67
46886;BME280;32622;48.202;11.326;2022-08-01T00:43:30;1016.32;;;22.95;21.99
46886;BME280;32622;48.202;11.326;2022-08-01T00:45:33;1016.25;;;23.32;21.95
46886;BME280;32622;48.202;11.326;2022-08-01T00:47:36;1016.26;;;23.26;21.56
46886;BME280;32622;48.202;11.326;2022-08-01T00:49:39;1016.18;;;23.74;21.65
46886;BME280;32622;48.202;11.326;2022-08-01T00:51:42;1016.33;;;22.96;21.66
46886;BME280;32622;48.202;11.326;2022-08-01T00:53:45;1016.32;;;22.93;21.75
46886;BME280;32622;48.202;11.326;2022-08-01T00:55:48;1016.30;;;23.09;21.47
46886;BME280;32622;48.202;11.326;2022-08-01T00:57:51;1016.31;;;23.07;21.46
46886;BME280;32622;48.202;11.326;2022-08-01T00:59:55;1016.26;;;23.23;21.33
46886;BME280;32622;48.202;11.326;2022-08-01T01:01:58;1016.31;;;23.01;21.69
46886;BME280;32622;48.202;11.326;2022-08-01T01:04:02;1016.21;;;23.26;21.50
46886;BME280;32622;48.202;11.326;2022-08-01T01:08:47;1016.30;;;22.64;21.94
46886;BME280;32622;48.202;11.326;2022-08-01T01:10:57;1016.24;;;23.12;21.55
46886;BME280;32622;48.202;11.326;2022-08-01T01:13:10;1016.22;;;23.37;21.75
46886;BME280;32622;48.202;11.326;2022-08-01T01:15:18;1016.38;;;22.61;21.58
46886;BME280;32622;48.202;11.326;2022-08-01T01:17:28;1016.38;;;22.50;21.97
46886;BME280;32622;48.202;11.326;2022-08-01T01:19:41;1016.40;;;22.48;21.99
46886;BME280;32622;48.202;11.326;2022-08-01T01:22:01;1016.28;;;23.08;22.00
46886;BME280;32622;48.202;11.326;2022-08-01T01:24:19;1016.30;;;23.01;22.20
46886;BME280;32622;48.202;11.326;2022-08-01T01:26:36;1016.30;;;23.23;21.92
46886;BME280;32622;48.202;11.326;2022-08-01T01:29:09;1016.41;;;22.85;21.62
46886;BME280;32622;48.202;11.326;2022-08-01T01:31:21;1016.44;;;22.71;22.34
46886;BME280;32622;48.202;11.326;2022-08-01T01:33:28;1016.42;;;22.81;21.98
46886;BME280;32622;48.202;11.326;2022-08-01T01:35:35;1016.40;;;22.87;22.12
46886;BME280;32622;48.202;11.326;2022-08-01T01:37:40;1016.45;;;22.63;21.99
46886;BME280;32622;48.202;11.326;2022-08-01T01:39:47;1016.54;;;22.18;22.32
46886;BME280;32622;48.202;11.326;2022-08-01T01:41:56;1016.43;;;22.73;22.10
46886;BME280;32622;48.202;11.326;2022-08-01T01:44:03;1016.39;;;22.79;22.19
46886;BME280;32622;48.202;11.326;2022-08-01T01:46:08;1016.50;;;22.29;22.28
46886;BME280;32622;48.202;11.326;2022-08-01T01:48:14;1016.39;;;22.94;21.91
46886;BME280;32622;48.202;11.326;2022-08-01T01:50:21;1016.54;;;22.23;21.89
46886;BME280;32622;48.202;11.326;2022-08-01T01:52:26;1016.38;;;23.07;21.68
46886;BME280;32622;48.202;11.326;2022-08-01T01:54:33;1016.56;;;22.24;21.99
46886;BME280;32622;48.202;11.326;2022-08-01T01:56:40;1016.46;;;22.81;21.89
46886;BME280;32622;48.202;11.326;2022-08-01T01:58:44;1016.52;;;22.55;21.82
46886;BME280;32622;48.202;11.326;2022-08-01T02:00:50;1016.57;;;22.29;22.12
46886;BME280;32622;48.202;11.326;2022-08-01T02:02:55;1016.54;;;22.54;21.74
46886;BME280;32622;48.202;11.326;2022-08-01T02:04:59;1016.63;;;22.09;21.91
46886;BME280;32622;48.202;11.326;2022-08-01T02:07:03;1016.60;;;22.20;21.86
46886;BME280;32622;48.202;11.326;2022-08-01T02:09:07;1016.57;;;22.37;21.85
46886;BME280;32622;48.202;11.326;2022-08-01T02:11:19;1016.58;;;22.34;21.91
46886;BME280;32622;48.202;11.326;2022-08-01T02:13:23;1016.59;;;22.28;22.00
46886;BME280;32622;48.202;11.326;2022-08-01T02:15:28;1016.78;;;21.64;22.36
46886;BME280;32622;48.202;11.326;2022-08-01T02:17:37;1016.79;;;21.56;22.03
46886;BME280;32622;48.202;11.326;2022-08-01T02:19:42;1016.66;;;22.09;21.97
46886;BME280;32622;48.202;11.326;2022-08-01T02:21:49;1016.67;;;22.08;22.13
46886;BME280;32622;48.202;11.326;2022-08-01T02:23:55;1016.69;;;22.21;22.21
46886;BME280;32622;48.202;11.326;2022-08-01T02:26:09;1016.72;;;22.03;22.19
46886;BME280;32622;48.202;11.326;2022-08-01T02:28:17;1016.76;;;21.89;22.38
46886;BME280;32622;48.202;11.326;2022-08-01T02:30:24;1016.63;;;22.39;21.94
46886;BME280;32622;48.202;11.326;2022-08-01T02:32:31;1016.69;;;22.22;22.05
46886;BME280;32622;48.202;11.326;2022-08-01T02:34:37;1016.68;;;22.15;21.96
46886;BME280;32622;48.202;11.326;2022-08-01T02:36:44;1016.80;;;21.89;22.21
46886;BME280;32622;48.202;11.326;2022-08-01T02:38:48;1016.79;;;21.91;22.14
46886;BME280;32622;48.202;11.326;2022-08-01T02:40:54;1016.72;;;22.28;22.13
46886;BME280;32622;48.202;11.326;2022-08-01T02:43:01;1016.73;;;22.20;22.09
46886;BME280;32622;48.202;11.326;2022-08-01T02:45:06;1016.82;;;21.83;22.22
46886;BME280;32622;48.202;11.326;2022-08-01T02:47:09;1016.85;;;21.65;22.14
46886;BME280;32622;48.202;11.326;2022-08-01T02:49:14;1016.89;;;21.49;22.03
46886;BME280;32622;48.202;11.326;2022-08-01T02:51:19;1016.85;;;21.87;22.12
46886;BME280;32622;48.202;11.326;2022-08-01T02:53:25;1016.82;;;21.77;22.26
46886;BME280;32622;48.202;11.326;2022-08-01T02:55:31;1016.80;;;21.94;22.15
46886;BME280;32622;48.202;11.326;2022-08-01T02:57:36;1017.00;;;21.07;22.49
46886;BME280;32622;48.202;11.326;2022-08-01T02:59:40;1016.86;;;21.89;22.23
46886;BME280;32622;48.202;11.326;2022-08-01T03:01:45;1016.90;;;21.78;21.99
46886;BME280;32622;48.202;11.326;2022-08-01T03:03:50;1017.03;;;20.96;22.09
46886;BME280;32622;48.202;11.326;2022-08-01T03:05:53;1017.00;;;21.13;22.48
46886;BME280;32622;48.202;11.326;2022-08-01T03:07:57;1016.86;;;21.98;22.47
46886;BME280;32622;48.202;11.326;2022-08-01T03:10:02;1017.10;;;21.09;22.50
46886;BME280;32622;48.202;11.326;2022-08-01T03:12:10;1017.02;;;21.23;22.51
46886;BME280;32622;48.202;11.326;2022-08-01T03:14:14;1017.04;;;21.30;22.59
46886;BME280;32622;48.202;11.326;2022-08-01T03:16:20;1017.05;;;21.36;22.61
46886;BME280;32622;48.202;11.326;2022-08-01T03:18:25;1017.09;;;21.11;22.37
46886;BME280;32622;48.202;11.326;2022-08-01T03:20:30;1017.06;;;21.25;22.08
46886;BME280;32622;48.202;11.326;2022-08-01T03:22:36;1017.06;;;21.22;22.17
46886;BME280;32622;48.202;11.326;2022-08-01T03:24:43;1017.05;;;21.33;22.10
46886;BME280;32622;48.202;11.326;2022-08-01T03:26:48;1017.01;;;21.57;21.76
46886;BME280;32622;48.202;11.326;2022-08-01T03:28:53;1017.13;;;21.07;22.05
46886;BME280;32622;48.202;11.326;2022-08-01T03:31:00;1017.11;;;21.23;22.03
46886;BME280;32622;48.202;11.326;2022-08-01T03:33:05;1017.05;;;21.54;21.76
46886;BME280;32622;48.202;11.326;2022-08-01T03:35:08;1017.13;;;21.15;21.64
46886;BME280;32622;48.202;11.326;2022-08-01T03:37:14;1017.08;;;21.36;21.64
46886;BME280;32622;48.202;11.326;2022-08-01T03:39:25;1017.15;;;21.21;21.80
46886;BME280;32622;48.202;11.326;2022-08-01T03:41:33;1017.18;;;21.30;21.67
46886;BME280;32622;48.202;11.326;2022-08-01T03:43:43;1017.25;;;21.25;21.64
46886;BME280;32622;48.202;11.326;2022-08-01T03:45:50;1017.25;;;21.46;21.52
46886;BME280;32622;48.202;11.326;2022-08-01T03:48:00;1017.23;;;21.48;21.54
46886;BME280;32622;48.202;11.326;2022-08-01T03:50:06;1017.30;;;21.17;21.64
46886;BME280;32622;48.202;11.326;2022-08-01T03:52:11;1017.38;;;20.93;21.94
46886;BME280;32622;48.202;11.326;2022-08-01T03:54:16;1017.29;;;21.60;21.63
46886;BME280;32622;48.202;11.326;2022-08-01T03:57:29;1016.72;;;24.57;21.92
46886;BME280;32622;48.202;11.326;2022-08-01T03:59:35;1017.45;;;20.91;22.10
46886;BME280;32622;48.202;11.326;2022-08-01T04:01:55;1017.45;;;21.01;22.35
46886;BME280;32622;48.202;11.326;2022-08-01T04:04:00;1017.51;;;20.76;22.34
46886;BME280;32622;48.202;11.326;2022-08-01T04:06:05;1017.54;;;20.53;22.37
46886;BME280;32622;48.202;11.326;2022-08-01T04:08:09;1017.55;;;20.69;22.39
46886;BME280;32622;48.202;11.326;2022-08-01T04:10:12;1017.55;;;20.66;22.16
46886;BME280;32622;48.202;11.326;2022-08-01T04:12:15;1017.46;;;21.09;21.92
46886;BME280;32622;48.202;11.326;2022-08-01T04:14:18;1017.40;;;21.42;22.11
46886;BME280;32622;48.202;11.326;2022-08-01T04:18:55;1017.48;;;21.26;21.89
46886;BME280;32622;48.202;11.326;2022-08-01T04:20:59;1017.59;;;20.79;22.04
46886;BME280;32622;48.202;11.326;2022-08-01T04:23:03;1017.52;;;21.26;21.76
46886;BME280;32622;48.202;11.326;2022-08-01T04:25:12;1017.55;;;21.32;21.76
46886;BME280;32622;48.202;11.326;2022-08-01T04:27:26;1017.54;;;21.50;21.75
46886;BME280;32622;48.202;11.326;2022-08-01T04:29:30;1017.68;;;20.90;21.99
46886;BME280;32622;48.202;11.326;2022-08-01T04:31:35;1017.75;;;20.77;22.06
46886;BME280;32622;48.202;11.326;2022-08-01T04:33:42;1017.76;;;20.92;22.05
46886;BME280;32622;48.202;11.326;2022-08-01T04:35:47;1017.72;;;21.06;21.89
46886;BME280;32622;48.202;11.326;2022-08-01T04:37:52;1017.72;;;21.09;21.92
46886;BME280;32622;48.202;11.326;2022-08-01T04:39:57;1017.73;;;21.10;21.84
46886;BME280;32622;48.202;11.326;2022-08-01T04:42:01;1017.76;;;20.92;21.92
46886;BME280;32622;48.202;11.326;2022-08-01T04:44:05;1017.68;;;21.33;21.74
46886;BME280;32622;48.202;11.326;2022-08-01T04:46:09;1017.82;;;20.86;22.04
46886;BME280;32622;48.202;11.326;2022-08-01T04:48:15;1017.77;;;21.15;21.78
46886;BME280;32622;48.202;11.326;2022-08-01T04:50:20;1017.85;;;20.83;22.06
46886;BME280;32622;48.202;11.326;2022-08-01T04:52:23;1017.88;;;20.72;21.95
46886;BME280;32622;48.202;11.326;2022-08-01T04:54:26;1017.80;;;20.93;21.95
46886;BME280;32622;48.202;11.326;2022-08-01T04:56:29;1017.74;;;21.19;21.96
46886;BME280;32622;48.202;11.326;2022-08-01T04:58:32;1017.75;;;21.26;21.67
46886;BME280;32622;48.202;11.326;2022-08-01T05:00:35;1017.77;;;21.25;21.80
46886;BME280;32622;48.202;11.326;2022-08-01T05:02:38;1017.74;;;21.46;22.02
46886;BME280;32622;48.202;11.326;2022-08-01T05:04:42;1017.75;;;21.37;21.86
46886;BME280;32622;48.202;11.326;2022-08-01T05:07:53;1017.18;;;24.24;22.03
46886;BME280;32622;48.202;11.326;2022-08-01T05:10:12;1017.80;;;21.26;22.27
46886;BME280;32622;48.202;11.326;2022-08-01T05:12:25;1017.67;;;21.78;22.28
46886;BME280;32622;48.202;11.326;2022-08-01T05:14:31;1017.73;;;21.62;22.03
46886;BME280;32622;48.202;11.326;2022-08-01T05:17:41;1017.00;;;25.27;21.83
46886;BME280;32622;48.202;11.326;2022-08-01T05:19:45;1017.71;;;21.99;21.84
46886;BME280;32622;48.202;11.326;2022-08-01T05:22:17;1017.69;;;21.94;21.55
46886;BME280;32622;48.202;11.326;2022-08-01T05:24:43;1017.58;;;22.43;21.87
46886;BME280;32622;48.202;11.326;2022-08-01T05:26:46;1017.65;;;22.28;21.93
46886;BME280;32622;48.202;11.326;2022-08-01T05:28:50;1017.66;;;22.56;21.59
46886;BME280;32622;48.202;11.326;2022-08-01T05:30:54;1017.58;;;22.98;21.02
46886;BME280;32622;48.202;11.326;2022-08-01T05:32:57;1017.56;;;23.05;20.82
46886;BME280;32622;48.202;11.326;2022-08-01T05:35:02;1017.59;;;23.05;20.86
46886;BME280;32622;48.202;11.326;2022-08-01T05:37:18;1017.66;;;22.73;20.64
46886;BME280;32622;48.202;11.326;2022-08-01T05:39:21;1017.60;;;23.27;21.19
46886;BME280;32622;48.202;11.326;2022-08-01T05:43:57;1017.53;;;23.70;20.65
46886;BME280;32622;48.202;11.326;2022-08-01T05:46:02;1017.51;;;23.81;20.35
46886;BME280;32622;48.202;11.326;2022-08-01T05:48:33;1016.89;;;26.89;19.93
46886;BME280;32622;48.202;11.326;2022-08-01T05:50:41;1017.41;;;24.14;19.17
46886;BME280;32622;48.202;11.326;2022-08-01T05:52:44;1017.22;;;25.03;19.10
46886;BME280;32622;48.202;11.326;2022-08-01T05:54:47;1017.28;;;24.54;18.72
46886;BME280;32622;48.202;11.326;2022-08-01T05:56:53;1017.20;;;24.92;18.65
46886;BME280;32622;48.202;11.326;2022-08-01T06:03:01;1017.20;;;25.06;18.34
46886;BME280;32622;48.202;11.326;2022-08-01T06:05:05;1017.32;;;24.47;19.75
46886;BME280;32622;48.202;11.326;2022-08-01T06:07:08;1017.23;;;25.19;19.20
46886;BME280;32622;48.202;11.326;2022-08-01T06:09:11;1017.14;;;25.59;18.40
46886;BME280;32622;48.202;11.326;2022-08-01T06:11:15;1017.13;;;25.62;18.20
46886;BME280;32622;48.202;11.326;2022-08-01T06:13:19;1017.10;;;25.89;18.13
46886;BME280;32622;48.202;11.326;2022-08-01T06:15:22;1017.24;;;25.35;18.18
46886;BME280;32622;48.202;11.326;2022-08-01T06:17:25;1017.19;;;25.79;17.99
46886;BME280;32622;48.202;11.326;2022-08-01T06:19:28;1017.10;;;26.26;18.13
46886;BME280;32622;48.202;11.326;2022-08-01T06:22:37;1016.60;;;29.11;17.71
46886;BME280;32622;48.202;11.326;2022-08-01T06:24:40;1017.22;;;26.11;17.96
46886;BME280;32622;48.202;11.326;2022-08-01T06:27:34;1016.65;;;28.97;17.39
46886;BME280;32622;48.202;11.326;2022-08-01T06:30:59;1016.60;;;29.56;17.39
46886;BME280;32622;48.202;11.326;2022-08-01T06:33:03;1017.26;;;26.15;17.63
46886;BME280;32622;48.202;11.326;2022-08-01T06:35:07;1017.14;;;26.57;17.58
46886;BME280;32622;48.202;11.326;2022-08-01T06:37:10;1017.03;;;27.41;17.05
46886;BME280;32622;48.202;11.326;2022-08-01T06:39:13;1017.08;;;27.06;17.04
46886;BME280;32622;48.202;11.326;2022-08-01T06:41:16;1017.09;;;27.17;17.51
46886;BME280;32622;48.202;11.326;2022-08-01T06:43:19;1017.21;;;26.52;17.40
46886;BME280;32622;48.202;11.326;2022-08-01T06:45:22;1017.13;;;26.81;17.55
46886;BME280;32622;48.202;11.326;2022-08-01T06:47:25;1017.08;;;27.12;17.03
46886;BME280;32622;48.202;11.326;2022-08-01T06:49:28;1017.19;;;26.60;17.20
46886;BME280;32622;48.202;11.326;2022-08-01T06:51:31;1017.26;;;26.32;17.36
46886;BME280;32622;48.202;11.326;2022-08-01T06:53:35;1017.10;;;27.23;17.06
46886;BME280;32622;48.202;11.326;2022-08-01T06:55:38;1017.18;;;26.75;17.14
46886;BME280;32622;48.202;11.326;2022-08-01T06:57:50;1017.07;;;27.22;17.39
46886;BME280;32622;48.202;11.326;2022-08-01T06:59:54;1017.19;;;26.64;17.10
46886;BME280;32622;48.202;11.326;2022-08-01T07:01:57;1017.04;;;27.17;17.39
46886;BME280;32622;48.202;11.326;2022-08-01T07:04:01;1017.06;;;27.31;17.08
46886;BME280;32622;48.202;11.326;2022-08-01T07:06:07;1017.03;;;27.39;16.89
46886;BME280;32622;48.202;11.326;2022-08-01T07:08:10;1016.97;;;27.59;16.67
46886;BME280;32622;48.202;11.326;2022-08-01T07:10:13;1016.83;;;28.52;16.62
46886;BME280;32622;48.202;11.326;2022-08-01T07:12:16;1016.86;;;28.17;16.17
46886;BME280;32622;48.202;11.326;2022-08-01T07:14:21;1016.88;;;28.11;16.15
46886;BME280;32622;48.202;11.326;2022-08-01T07:16:24;1016.83;;;28.39;16.48
46886;BME280;32622;48.202;11.326;2022-08-01T07:18:28;1016.77;;;28.42;16.34
46886;BME280;32622;48.202;11.326;2022-08-01T07:20:31;1016.56;;;29.31;15.82
46886;BME280;32622;48.202;11.326;2022-08-01T07:22:34;1016.68;;;28.45;15.83
46886;BME280;32622;48.202;11.326;2022-08-01T07:24:37;1016.62;;;28.92;15.71
46886;BME280;32622;48.202;11.326;2022-08-01T07:26:41;1016.90;;;27.80;16.05
46886;BME280;32622;48.202;11.326;2022-08-01T07:28:44;1016.51;;;29.46;15.56
46886;BME280;32622;48.202;11.326;2022-08-01T07:30:47;1016.71;;;28.48;15.84
46886;BME280;32622;48.202;11.326;2022-08-01T07:32:50;1016.55;;;29.14;15.47
46886;BME280;32622;48.202;11.326;2022-08-01T07:34:54;1016.46;;;29.57;15.71
46886;BME280;32622;48.202;11.326;2022-08-01T07:37:10;1016.43;;;29.82;15.32
46886;BME280;32622;48.202;11.326;2022-08-01T07:39:14;1016.50;;;29.33;15.45
46886;BME280;32622;48.202;11.326;2022-08-01T07:41:23;1016.41;;;29.76;15.38
46886;BME280;32622;48.202;11.326;2022-08-01T07:43:39;1016.38;;;29.93;15.12
46886;BME280;32622;48.202;11.326;2022-08-01T07:45:45;1016.34;;;30.09;15.21
46886;BME280;32622;48.202;11.326;2022-08-01T07:49:14;1016.31;;;30.15;15.04
46886;BME280;32622;48.202;11.326;2022-08-01T07:53:31;1015.88;;;32.60;15.54
46886;BME280;32622;48.202;11.326;2022-08-01T07:55:34;1016.59;;;28.97;15.90
46886;BME280;32622;48.202;11.326;2022-08-01T07:57:37;1016.43;;;29.82;15.68
46886;BME280;32622;48.202;11.326;2022-08-01T07:59:41;1016.47;;;29.64;15.72
46886;BME280;32622;48.202;11.326;2022-08-01T08:01:44;1016.46;;;29.60;15.23
46886;BME280;32622;48.202;11.326;2022-08-01T08:03:47;1016.31;;;30.34;15.31
46886;BME280;32622;48.202;11.326;2022-08-01T08:05:50;1016.23;;;30.66;14.96
46886;BME280;32622;48.202;11.326;2022-08-01T08:07:53;1016.31;;;30.29;14.85
46886;BME280;32622;48.202;11.326;2022-08-01T08:09:56;1016.20;;;30.79;14.80
46886;BME280;32622;48.202;11.326;2022-08-01T08:11:59;1016.03;;;31.49;14.51
46886;BME280;32622;48.202;11.326;2022-08-01T08:14:03;1016.17;;;30.74;14.36
46886;BME280;32622;48.202;11.326;2022-08-01T08:16:06;1015.99;;;31.86;14.64
46886;BME280;32622;48.202;11.326;2022-08-01T08:18:09;1015.95;;;31.92;13.97
46886;BME280;32622;48.202;11.326;2022-08-01T08:20:12;1016.05;;;31.36;14.46
46886;BME280;32622;48.202;11.326;2022-08-01T08:22:16;1015.95;;;31.81;13.90
46886;BME280;32622;48.202;11.326;2022-08-01T08:24:19;1015.87;;;32.05;13.83
46886;BME280;32622;48.202;11.326;2022-08-01T08:26:22;1015.95;;;31.40;13.78
46886;BME280;32622;48.202;11.326;2022-08-01T08:28:25;1016.12;;;30.67;14.24
46886;BME280;32622;48.202;11.326;2022-08-01T08:30:28;1016.13;;;30.69;14.51
46886;BME280;32622;48.202;11.326;2022-08-01T08:32:31;1016.06;;;30.89;14.47
46886;BME280;32622;48.202;11.326;2022-08-01T08:34:34;1015.92;;;32.02;14.33
46886;BME280;32622;48.202;11.326;2022-08-01T08:36:38;1015.95;;;31.93;14.49
46886;BME280;32622;48.202;11.326;2022-08-01T08:38:41;1015.89;;;31.96;13.92
46886;BME280;32622;48.202;11.326;2022-08-01T08:40:44;1015.78;;;32.63;14.02
46886;BME280;32622;48.202;11.326;2022-08-01T08:42:48;1015.87;;;32.01;14.37
46886;BME280;32622;48.202;11.326;2022-08-01T08:44:51;1015.84;;;32.39;13.88
46886;BME280;32622;48.202;11.326;2022-08-01T08:46:55;1015.95;;;31.62;14.05
46886;BME280;32622;48.202;11.326;2022-08-01T08:49:02;1015.79;;;32.40;13.85
46886;BME280;32622;48.202;11.326;2022-08-01T08:51:08;1015.98;;;31.32;14.10
46886;BME280;32622;48.202;11.326;2022-08-01T08:53:13;1015.86;;;32.02;14.02
46886;BME280;32622;48.202;11.326;2022-08-01T08:55:18;1016.03;;;31.32;14.37
46886;BME280;32622;48.202;11.326;2022-08-01T08:57:21;1016.00;;;31.32;14.11
46886;BME280;32622;48.202;11.326;2022-08-01T08:59:25;1015.83;;;32.25;13.41
46886;BME280;32622;48.202;11.326;2022-08-01T09:01:29;1015.86;;;31.80;13.39
46886;BME280;32622;48.202;11.326;2022-08-01T09:03:33;1015.75;;;32.41;13.69
46886;BME280;32622;48.202;11.326;2022-08-01T09:05:36;1015.76;;;32.35;14.09
46886;BME280;32622;48.202;11.326;2022-08-01T09:07:39;1015.65;;;32.70;13.81
46886;BME280;32622;48.202;11.326;2022-08-01T09:09:42;1015.63;;;32.84;13.51
46886;BME280;32622;48.202;11.326;2022-08-01T09:11:46;1015.70;;;32.71;13.74
46886;BME280;32622;48.202;11.326;2022-08-01T09:14:03;1015.72;;;32.44;13.21
46886;BME280;32622;48.202;11.326;2022-08-01T09:16:06;1016.02;;;31.16;13.31
46886;BME280;32622;48.202;11.326;2022-08-01T09:18:28;1015.85;;;31.80;13.56
46886;BME280;32622;48.202;11.326;2022-08-01T09:20:31;1015.72;;;32.74;13.61
46886;BME280;32622;48.202;11.326;2022-08-01T09:22:35;1015.81;;;32.29;13.47
46886;BME280;32622;48.202;11.326;2022-08-01T09:24:40;1015.66;;;33.03;13.30
46886;BME280;32622;48.202;11.326;2022-08-01T09:26:43;1015.62;;;33.26;13.33
46886;BME280;32622;48.202;11.326;2022-08-01T09:28:49;1015.77;;;32.31;13.11
46886;BME280;32622;48.202;11.326;2022-08-01T09:30:53;1015.67;;;32.64;13.42
46886;BME280;32622;48.202;11.326;2022-08-01T09:32:57;1015.63;;;32.94;13.23
46886;BME280;32622;48.202;11.326;2022-08-01T09:35:23;1015.56;;;33.30;12.87
46886;BME280;32622;48.202;11.326;2022-08-01T09:37:30;1015.61;;;32.69;13.34
46886;BME280;32622;48.202;11.326;2022-08-01T09:39:35;1015.57;;;33.06;12.59
46886;BME280;32622;48.202;11.326;2022-08-01T09:41:39;1015.56;;;33.11;13.41
46886;BME280;32622;48.202;11.326;2022-08-01T09:43:50;1015.62;;;33.07;12.88
46886;BME280;32622;48.202;11.326;2022-08-01T09:45:54;1015.57;;;33.05;13.53
46886;BME280;32622;48.202;11.326;2022-08-01T09:47:57;1015.71;;;32.29;13.33
46886;BME280;32622;48.202;11.326;2022-08-01T09:50:08;1015.60;;;33.00;13.36
46886;BME280;32622;48.202;11.326;2022-08-01T09:52:14;1015.67;;;32.55;13.07
46886;BME280;32622;48.202;11.326;2022-08-01T09:54:29;1015.58;;;33.02;12.99
46886;BME280;32622;48.202;11.326;2022-08-01T09:56:37;1015.61;;;32.81;13.45
46886;BME280;32622;48.202;11.326;2022-08-01T09:58:57;1015.66;;;32.29;13.20
46886;BME280;32622;48.202;11.326;2022-08-01T10:01:01;1015.70;;;32.11;14.05
46886;BME280;32622;48.202;11.326;2022-08-01T10:03:20;1015.64;;;32.45;13.45
46886;BME280;32622;48.202;11.326;2022-08-01T10:05:31;1015.63;;;32.44;13.19
46886;BME280;32622;48.202;11.326;2022-08-01T10:07:36;1015.52;;;33.09;13.17
46886;BME280;32622;48.202;11.326;2022-08-01T10:09:39;1015.64;;;32.13;13.14
46886;BME280;32622;48.202;11.326;2022-08-01T10:11:43;1015.71;;;31.72;13.55
46886;BME280;32622;48.202;11.326;2022-08-01T10:13:46;1015.61;;;32.37;13.52
46886;BME280;32622;48.202;11.326;2022-08-01T10:15:50;1016.17;;;29.11;14.69
46886;BME280;32622;48.202;11.326;2022-08-01T10:17:55;1015.79;;;30.97;14.30
46886;BME280;32622;48.202;11.326;2022-08-01T10:19:59;1015.74;;;31.18;14.59
46886;BME280;32622;48.202;11.326;2022-08-01T10:22:07;1015.76;;;30.76;14.19
46886;BME280;32622;48.202;11.326;2022-08-01T10:24:11;1015.76;;;31.01;14.79
46886;BME280;32622;48.202;11.326;2022-08-01T10:26:16;1015.84;;;30.64;14.53
46886;BME280;32622;48.202;11.326;2022-08-01T10:28:20;1015.62;;;31.60;14.08
46886;BME280;32622;48.202;11.326;2022-08-01T10:30:24;1015.54;;;32.02;13.67
46886;BME280;32622;48.202;11.326;2022-08-01T10:32:27;1015.42;;;32.50;13.64
46886;BME280;32622;48.202;11.326;2022-08-01T10:34:32;1015.55;;;31.93;13.48
46886;BME280;32622;48.202;11.326;2022-08-01T10:36:37;1015.70;;;30.89;13.35
46886;BME280;32622;48.202;11.326;2022-08-01T10:38:41;1015.45;;;32.06;13.27
46886;BME280;32622;48.202;11.326;2022-08-01T10:40:44;1015.36;;;32.51;13.11
46886;BME280;32622;48.202;11.326;2022-08-01T10:42:47;1015.33;;;32.73;13.10
46886;BME280;32622;48.202;11.326;2022-08-01T10:44:51;1015.35;;;32.37;13.06
46886;BME280;32622;48.202;11.326;2022-08-01T10:47:01;1015.36;;;32.18;12.78
46886;BME280;32622;48.202;11.326;2022-08-01T10:49:08;1015.36;;;31.99;13.17
46886;BME280;32622;48.202;11.326;2022-08-01T10:51:14;1015.35;;;32.19;13.28
46886;BME280;32622;48.202;11.326;2022-08-01T10:53:20;1015.32;;;31.68;13.57
46886;BME280;32622;48.202;11.326;2022-08-01T10:55:25;1015.54;;;30.72;14.25
46886;BME280;32622;48.202;11.326;2022-08-01T10:57:41;1015.40;;;31.31;14.35
46886;BME280;32622;48.202;11.326;2022-08-01T10:59:50;1015.22;;;31.87;13.62
46886;BME280;32622;48.202;11.326;2022-08-01T11:01:58;1015.64;;;30.34;14.26
46886;BME280;32622;48.202;11.326;2022-08-01T11:04:07;1015.38;;;31.54;14.25
46886;BME280;32622;48.202;11.326;2022-08-01T11:06:17;1015.31;;;31.62;14.15
46886;BME280;32622;48.202;11.326;2022-08-01T11:08:22;1015.43;;;31.02;14.07
46886;BME280;32622;48.202;11.326;2022-08-01T11:10:35;1015.32;;;31.59;13.80
46886;BME280;32622;48.202;11.326;2022-08-01T11:12:41;1015.25;;;31.56;13.91
46886;BME280;32622;48.202;11.326;2022-08-01T11:15:21;1015.24;;;31.67;13.40
46886;BME280;32622;48.202;11.326;2022-08-01T11:17:33;1015.21;;;31.61;13.24
46886;BME280;32622;48.202;11.326;2022-08-01T11:20:08;1015.38;;;30.66;13.74
46886;BME280;32622;48.202;11.326;2022-08-01T11:22:12;1015.13;;;31.78;14.13
46886;BME280;32622;48.202;11.326;2022-08-01T11:24:15;1015.23;;;31.09;13.93
46886;BME280;32622;48.202;11.326;2022-08-01T11:26:18;1015.11;;;31.77;13.20
46886;BME280;32622;48.202;11.326;2022-08-01T11:28:23;1015.19;;;31.23;13.28
46886;BME280;32622;48.202;11.326;2022-08-01T11:30:26;1015.14;;;31.56;13.45